Terminal Aerodrome Forecast
Issued by NWS

Home | Current Version | Previous Version | Text Only | Print | Product List | Glossary On
Versions: 1 2 3 4 5 6 7 8 9 10 11 12 13
000
FTUS42 KMLB 262343
TAFTIX
TAF
KTIX 262343Z 2700/2724 11008KT P6SM VCSH SCT025 BKN050 OVC120
      TEMPO 2700/2703 4SM -RA BKN025
     FM270800 11009KT P6SM -RA VCSH SCT015 OVC030
      TEMPO 2712/2716 VRB15G25KT 1SM +TSRA OVC015CB
     FM271600 15014G22KT 5SM -RA SCT015 OVC025=

USA.gov is the U.S. government's official web portal to all federal, state and local government web resources and services.